sensor_id;sensor_type;location;lat;lon;timestamp;temperature;humidity
18177;DHT22;9213;50.858;3.964;2022-08-19T00:00:11;24.30;53.30
18177;DHT22;9213;50.858;3.964;2022-08-19T00:02:41;24.30;53.50
18177;DHT22;9213;50.858;3.964;2022-08-19T00:05:09;24.20;53.50
18177;DHT22;9213;50.858;3.964;2022-08-19T00:07:36;24.10;53.50
18177;DHT22;9213;50.858;3.964;2022-08-19T00:10:05;24.10;53.80
18177;DHT22;9213;50.858;3.964;2022-08-19T00:12:33;24.10;53.80
18177;DHT22;9213;50.858;3.964;2022-08-19T00:15:01;24.00;54.40
18177;DHT22;9213;50.858;3.964;2022-08-19T00:17:29;24.00;54.00
18177;DHT22;9213;50.858;3.964;2022-08-19T00:19:56;23.90;53.90
18177;DHT22;9213;50.858;3.964;2022-08-19T00:22:23;23.80;54.70
18177;DHT22;9213;50.858;3.964;2022-08-19T00:24:49;23.80;54.20
18177;DHT22;9213;50.858;3.964;2022-08-19T00:27:16;23.80;54.20
18177;DHT22;9213;50.858;3.964;2022-08-19T00:29:43;23.70;54.20
18177;DHT22;9213;50.858;3.964;2022-08-19T00:32:10;23.70;54.20
18177;DHT22;9213;50.858;3.964;2022-08-19T00:34:39;23.60;54.40
18177;DHT22;9213;50.858;3.964;2022-08-19T00:37:06;23.60;54.50
18177;DHT22;9213;50.858;3.964;2022-08-19T00:39:32;23.60;54.60
18177;DHT22;9213;50.858;3.964;2022-08-19T00:41:59;23.50;54.70
18177;DHT22;9213;50.858;3.964;2022-08-19T00:44:28;23.50;54.80
18177;DHT22;9213;50.858;3.964;2022-08-19T00:46:57;23.50;55.00
18177;DHT22;9213;50.858;3.964;2022-08-19T00:49:28;23.40;55.10
18177;DHT22;9213;50.858;3.964;2022-08-19T00:52:00;23.40;55.00
18177;DHT22;9213;50.858;3.964;2022-08-19T00:54:28;23.40;55.00
18177;DHT22;9213;50.858;3.964;2022-08-19T00:56:57;23.40;54.80
18177;DHT22;9213;50.858;3.964;2022-08-19T00:59:25;23.30;54.80
18177;DHT22;9213;50.858;3.964;2022-08-19T01:01:52;23.20;54.80
18177;DHT22;9213;50.858;3.964;2022-08-19T01:04:19;23.20;54.80
18177;DHT22;9213;50.858;3.964;2022-08-19T01:06:46;23.10;54.80
18177;DHT22;9213;50.858;3.964;2022-08-19T01:09:14;23.10;54.70
18177;DHT22;9213;50.858;3.964;2022-08-19T01:11:43;23.00;54.70
18177;DHT22;9213;50.858;3.964;2022-08-19T01:14:12;23.00;54.80
18177;DHT22;9213;50.858;3.964;2022-08-19T01:16:40;22.90;54.80
18177;DHT22;9213;50.858;3.964;2022-08-19T01:19:15;22.90;55.00
18177;DHT22;9213;50.858;3.964;2022-08-19T01:21:48;22.90;55.10
18177;DHT22;9213;50.858;3.964;2022-08-19T01:24:19;22.90;55.10
18177;DHT22;9213;50.858;3.964;2022-08-19T01:26:46;22.90;55.00
18177;DHT22;9213;50.858;3.964;2022-08-19T01:29:13;22.90;54.90
18177;DHT22;9213;50.858;3.964;2022-08-19T01:31:40;22.80;54.80
18177;DHT22;9213;50.858;3.964;2022-08-19T01:34:07;22.80;54.80
18177;DHT22;9213;50.858;3.964;2022-08-19T01:36:37;22.80;54.70
18177;DHT22;9213;50.858;3.964;2022-08-19T01:39:07;22.80;55.00
18177;DHT22;9213;50.858;3.964;2022-08-19T01:41:36;22.70;55.10
18177;DHT22;9213;50.858;3.964;2022-08-19T01:44:05;22.70;55.00
18177;DHT22;9213;50.858;3.964;2022-08-19T01:46:32;22.70;55.10
18177;DHT22;9213;50.858;3.964;2022-08-19T01:48:59;22.60;55.00
18177;DHT22;9213;50.858;3.964;2022-08-19T01:51:27;22.60;55.00
18177;DHT22;9213;50.858;3.964;2022-08-19T01:53:54;22.50;55.10
18177;DHT22;9213;50.858;3.964;2022-08-19T01:56:22;22.50;55.30
18177;DHT22;9213;50.858;3.964;2022-08-19T01:58:53;22.40;55.30
18177;DHT22;9213;50.858;3.964;2022-08-19T02:01:21;22.40;55.40
18177;DHT22;9213;50.858;3.964;2022-08-19T02:03:48;22.40;55.30
18177;DHT22;9213;50.858;3.964;2022-08-19T02:06:15;22.40;55.40
18177;DHT22;9213;50.858;3.964;2022-08-19T02:08:43;22.30;55.60
18177;DHT22;9213;50.858;3.964;2022-08-19T02:11:19;22.30;55.50
18177;DHT22;9213;50.858;3.964;2022-08-19T02:13:46;22.30;55.70
18177;DHT22;9213;50.858;3.964;2022-08-19T02:16:16;22.20;55.40
18177;DHT22;9213;50.858;3.964;2022-08-19T02:18:43;22.20;55.60
18177;DHT22;9213;50.858;3.964;2022-08-19T02:21:10;22.20;55.70
18177;DHT22;9213;50.858;3.964;2022-08-19T02:23:37;22.20;55.60
18177;DHT22;9213;50.858;3.964;2022-08-19T02:26:05;22.10;55.60
18177;DHT22;9213;50.858;3.964;2022-08-19T02:28:32;22.10;55.70
18177;DHT22;9213;50.858;3.964;2022-08-19T02:30:59;22.10;56.00
18177;DHT22;9213;50.858;3.964;2022-08-19T02:33:29;22.00;56.10
18177;DHT22;9213;50.858;3.964;2022-08-19T02:35:56;22.00;56.20
18177;DHT22;9213;50.858;3.964;2022-08-19T02:38:23;22.00;56.20
18177;DHT22;9213;50.858;3.964;2022-08-19T02:40:53;21.90;56.40
18177;DHT22;9213;50.858;3.964;2022-08-19T02:43:21;21.90;56.40
18177;DHT22;9213;50.858;3.964;2022-08-19T02:45:48;21.90;56.50
18177;DHT22;9213;50.858;3.964;2022-08-19T02:48:16;21.90;56.60
18177;DHT22;9213;50.858;3.964;2022-08-19T02:50:45;21.90;56.60
18177;DHT22;9213;50.858;3.964;2022-08-19T02:53:13;21.80;56.60
18177;DHT22;9213;50.858;3.964;2022-08-19T02:55:43;21.80;56.60
18177;DHT22;9213;50.858;3.964;2022-08-19T02:58:11;21.80;56.60
18177;DHT22;9213;50.858;3.964;2022-08-19T03:00:42;21.80;56.50
18177;DHT22;9213;50.858;3.964;2022-08-19T03:03:10;21.80;57.40
18177;DHT22;9213;50.858;3.964;2022-08-19T03:05:37;21.70;56.70
18177;DHT22;9213;50.858;3.964;2022-08-19T03:08:05;21.70;56.70
18177;DHT22;9213;50.858;3.964;2022-08-19T03:10:32;21.60;56.80
18177;DHT22;9213;50.858;3.964;2022-08-19T03:12:59;21.60;57.00
18177;DHT22;9213;50.858;3.964;2022-08-19T03:15:26;21.60;57.10
18177;DHT22;9213;50.858;3.964;2022-08-19T03:17:53;21.60;57.30
18177;DHT22;9213;50.858;3.964;2022-08-19T03:20:19;21.50;57.30
18177;DHT22;9213;50.858;3.964;2022-08-19T03:22:46;21.50;57.30
18177;DHT22;9213;50.858;3.964;2022-08-19T03:25:15;21.50;57.60
18177;DHT22;9213;50.858;3.964;2022-08-19T03:27:42;21.50;57.60
18177;DHT22;9213;50.858;3.964;2022-08-19T03:30:10;21.50;57.50
18177;DHT22;9213;50.858;3.964;2022-08-19T03:32:37;21.50;57.50
18177;DHT22;9213;50.858;3.964;2022-08-19T03:35:04;21.40;57.40
18177;DHT22;9213;50.858;3.964;2022-08-19T03:37:31;21.40;57.40
18177;DHT22;9213;50.858;3.964;2022-08-19T03:39:58;21.40;57.50
18177;DHT22;9213;50.858;3.964;2022-08-19T03:42:27;21.40;57.60
18177;DHT22;9213;50.858;3.964;2022-08-19T03:44:54;21.30;57.70
18177;DHT22;9213;50.858;3.964;2022-08-19T03:47:21;21.30;57.70
18177;DHT22;9213;50.858;3.964;2022-08-19T03:49:47;21.30;58.00
18177;DHT22;9213;50.858;3.964;2022-08-19T03:52:14;21.30;58.00
18177;DHT22;9213;50.858;3.964;2022-08-19T03:54:41;21.20;58.00
18177;DHT22;9213;50.858;3.964;2022-08-19T03:57:11;21.20;58.00
18177;DHT22;9213;50.858;3.964;2022-08-19T03:59:39;21.20;57.90
18177;DHT22;9213;50.858;3.964;2022-08-19T04:02:10;21.20;58.10
18177;DHT22;9213;50.858;3.964;2022-08-19T04:04:38;21.20;57.90
18177;DHT22;9213;50.858;3.964;2022-08-19T04:07:06;21.10;58.00
18177;DHT22;9213;50.858;3.964;2022-08-19T04:09:34;21.10;58.00
18177;DHT22;9213;50.858;3.964;2022-08-19T04:12:03;21.10;58.00
18177;DHT22;9213;50.858;3.964;2022-08-19T04:14:31;21.10;58.20
18177;DHT22;9213;50.858;3.964;2022-08-19T04:17:02;21.00;58.20
18177;DHT22;9213;50.858;3.964;2022-08-19T04:19:31;21.00;58.40
18177;DHT22;9213;50.858;3.964;2022-08-19T04:21:58;21.00;58.40
18177;DHT22;9213;50.858;3.964;2022-08-19T04:24:25;21.00;59.00
18177;DHT22;9213;50.858;3.964;2022-08-19T04:26:53;21.00;58.30
18177;DHT22;9213;50.858;3.964;2022-08-19T04:29:22;21.00;58.10
18177;DHT22;9213;50.858;3.964;2022-08-19T04:31:51;20.90;58.00
18177;DHT22;9213;50.858;3.964;2022-08-19T04:34:21;20.90;58.00
18177;DHT22;9213;50.858;3.964;2022-08-19T04:36:50;20.90;58.20
18177;DHT22;9213;50.858;3.964;2022-08-19T04:39:19;20.90;58.10
18177;DHT22;9213;50.858;3.964;2022-08-19T04:41:46;20.90;58.20
18177;DHT22;9213;50.858;3.964;2022-08-19T04:44:31;20.90;58.30
18177;DHT22;9213;50.858;3.964;2022-08-19T04:46:58;20.80;58.40
18177;DHT22;9213;50.858;3.964;2022-08-19T04:49:26;20.80;58.40
18177;DHT22;9213;50.858;3.964;2022-08-19T04:51:54;20.80;58.50
18177;DHT22;9213;50.858;3.964;2022-08-19T04:54:23;20.80;58.50
18177;DHT22;9213;50.858;3.964;2022-08-19T04:56:51;20.80;58.60
18177;DHT22;9213;50.858;3.964;2022-08-19T04:59:19;20.80;58.80
18177;DHT22;9213;50.858;3.964;2022-08-19T05:01:47;20.70;58.80
18177;DHT22;9213;50.858;3.964;2022-08-19T05:04:17;20.80;58.90
18177;DHT22;9213;50.858;3.964;2022-08-19T05:06:46;20.80;59.10
18177;DHT22;9213;50.858;3.964;2022-08-19T05:09:14;20.80;59.20
18177;DHT22;9213;50.858;3.964;2022-08-19T05:11:42;20.80;59.30
18177;DHT22;9213;50.858;3.964;2022-08-19T05:14:10;20.80;59.50
18177;DHT22;9213;50.858;3.964;2022-08-19T05:16:38;20.90;59.60
18177;DHT22;9213;50.858;3.964;2022-08-19T05:19:05;20.90;59.40
18177;DHT22;9213;50.858;3.964;2022-08-19T05:21:51;21.00;59.20
18177;DHT22;9213;50.858;3.964;2022-08-19T05:24:36;21.00;59.70
18177;DHT22;9213;50.858;3.964;2022-08-19T05:27:03;21.00;58.80
18177;DHT22;9213;50.858;3.964;2022-08-19T05:29:32;21.00;58.80
18177;DHT22;9213;50.858;3.964;2022-08-19T05:32:01;21.10;58.80
18177;DHT22;9213;50.858;3.964;2022-08-19T05:34:28;21.10;58.70
18177;DHT22;9213;50.858;3.964;2022-08-19T05:36:58;21.10;58.80
18177;DHT22;9213;50.858;3.964;2022-08-19T05:39:27;21.10;58.80
18177;DHT22;9213;50.858;3.964;2022-08-19T05:41:56;21.10;58.90
18177;DHT22;9213;50.858;3.964;2022-08-19T05:44:25;21.20;58.80
18177;DHT22;9213;50.858;3.964;2022-08-19T05:46:52;21.20;59.10
18177;DHT22;9213;50.858;3.964;2022-08-19T05:49:22;21.20;58.80
18177;DHT22;9213;50.858;3.964;2022-08-19T05:51:51;21.20;58.90
18177;DHT22;9213;50.858;3.964;2022-08-19T05:54:19;21.20;58.90
18177;DHT22;9213;50.858;3.964;2022-08-19T05:56:48;21.30;59.90
18177;DHT22;9213;50.858;3.964;2022-08-19T05:59:16;21.30;59.20
18177;DHT22;9213;50.858;3.964;2022-08-19T06:01:46;21.40;59.20
18177;DHT22;9213;50.858;3.964;2022-08-19T06:04:16;21.40;59.50
18177;DHT22;9213;50.858;3.964;2022-08-19T06:06:44;21.60;59.50
18177;DHT22;9213;50.858;3.964;2022-08-19T06:09:11;21.80;59.20
18177;DHT22;9213;50.858;3.964;2022-08-19T06:11:42;22.00;58.70
18177;DHT22;9213;50.858;3.964;2022-08-19T06:14:11;22.20;58.50
18177;DHT22;9213;50.858;3.964;2022-08-19T06:16:39;22.40;57.80
18177;DHT22;9213;50.858;3.964;2022-08-19T06:19:09;22.60;57.60
18177;DHT22;9213;50.858;3.964;2022-08-19T06:21:38;22.80;57.00
18177;DHT22;9213;50.858;3.964;2022-08-19T06:24:08;22.90;56.60
18177;DHT22;9213;50.858;3.964;2022-08-19T06:26:38;23.00;56.10
18177;DHT22;9213;50.858;3.964;2022-08-19T06:29:08;23.10;56.10
18177;DHT22;9213;50.858;3.964;2022-08-19T06:31:36;23.10;56.00
18177;DHT22;9213;50.858;3.964;2022-08-19T06:34:05;23.10;56.20
18177;DHT22;9213;50.858;3.964;2022-08-19T06:36:34;23.20;56.40
18177;DHT22;9213;50.858;3.964;2022-08-19T06:39:05;23.40;56.10
18177;DHT22;9213;50.858;3.964;2022-08-19T06:41:35;23.60;55.60
18177;DHT22;9213;50.858;3.964;2022-08-19T06:44:03;23.70;55.20
18177;DHT22;9213;50.858;3.964;2022-08-19T06:46:32;23.90;55.00
18177;DHT22;9213;50.858;3.964;2022-08-19T06:48:59;24.10;54.60
18177;DHT22;9213;50.858;3.964;2022-08-19T06:51:25;24.30;54.00
18177;DHT22;9213;50.858;3.964;2022-08-19T06:53:54;24.40;53.50
18177;DHT22;9213;50.858;3.964;2022-08-19T06:56:24;24.50;53.60
18177;DHT22;9213;50.858;3.964;2022-08-19T06:58:56;24.70;53.30
18177;DHT22;9213;50.858;3.964;2022-08-19T07:01:23;24.80;53.00
18177;DHT22;9213;50.858;3.964;2022-08-19T07:03:51;25.20;52.70
18177;DHT22;9213;50.858;3.964;2022-08-19T07:06:19;25.40;51.60
18177;DHT22;9213;50.858;3.964;2022-08-19T07:08:47;25.50;50.90
18177;DHT22;9213;50.858;3.964;2022-08-19T07:11:17;25.50;50.70
18177;DHT22;9213;50.858;3.964;2022-08-19T07:13:45;25.50;51.00
18177;DHT22;9213;50.858;3.964;2022-08-19T07:16:16;25.50;51.10
18177;DHT22;9213;50.858;3.964;2022-08-19T07:18:44;25.50;51.40
18177;DHT22;9213;50.858;3.964;2022-08-19T07:21:15;25.60;50.80
18177;DHT22;9213;50.858;3.964;2022-08-19T07:23:43;25.60;50.80
18177;DHT22;9213;50.858;3.964;2022-08-19T07:26:13;25.60;51.00
18177;DHT22;9213;50.858;3.964;2022-08-19T07:28:42;25.70;50.80
18177;DHT22;9213;50.858;3.964;2022-08-19T07:31:10;25.70;50.70
18177;DHT22;9213;50.858;3.964;2022-08-19T07:33:38;25.70;50.70
18177;DHT22;9213;50.858;3.964;2022-08-19T07:36:06;25.70;50.70
18177;DHT22;9213;50.858;3.964;2022-08-19T07:38:40;25.80;50.80
18177;DHT22;9213;50.858;3.964;2022-08-19T07:41:09;25.80;51.00
18177;DHT22;9213;50.858;3.964;2022-08-19T07:43:36;25.70;51.20
18177;DHT22;9213;50.858;3.964;2022-08-19T07:46:03;25.70;51.20
18177;DHT22;9213;50.858;3.964;2022-08-19T07:48:30;25.80;51.20
18177;DHT22;9213;50.858;3.964;2022-08-19T07:51:00;25.80;51.00
18177;DHT22;9213;50.858;3.964;2022-08-19T07:53:29;25.80;51.20
18177;DHT22;9213;50.858;3.964;2022-08-19T07:55:58;25.80;51.10
18177;DHT22;9213;50.858;3.964;2022-08-19T07:58:30;25.80;51.10
18177;DHT22;9213;50.858;3.964;2022-08-19T08:00:58;25.70;52.00
18177;DHT22;9213;50.858;3.964;2022-08-19T08:03:26;25.70;51.60
18177;DHT22;9213;50.858;3.964;2022-08-19T08:06:07;25.70;51.70
18177;DHT22;9213;50.858;3.964;2022-08-19T08:08:52;25.60;51.90
18177;DHT22;9213;50.858;3.964;2022-08-19T08:11:37;25.60;52.20
18177;DHT22;9213;50.858;3.964;2022-08-19T08:14:04;25.50;52.60
18177;DHT22;9213;50.858;3.964;2022-08-19T08:16:34;25.50;52.80
18177;DHT22;9213;50.858;3.964;2022-08-19T08:19:01;25.50;52.80
18177;DHT22;9213;50.858;3.964;2022-08-19T08:21:28;25.50;52.90
18177;DHT22;9213;50.858;3.964;2022-08-19T08:23:54;25.50;52.90
18177;DHT22;9213;50.858;3.964;2022-08-19T08:26:22;25.50;53.00
18177;DHT22;9213;50.858;3.964;2022-08-19T08:28:52;25.60;53.20
18177;DHT22;9213;50.858;3.964;2022-08-19T08:31:19;25.70;52.70
18177;DHT22;9213;50.858;3.964;2022-08-19T08:33:47;25.80;52.50
18177;DHT22;9213;50.858;3.964;2022-08-19T08:36:14;25.90;52.30
18177;DHT22;9213;50.858;3.964;2022-08-19T08:38:41;26.00;52.60
18177;DHT22;9213;50.858;3.964;2022-08-19T08:41:17;26.20;52.20
18177;DHT22;9213;50.858;3.964;2022-08-19T08:43:48;26.30;52.00
18177;DHT22;9213;50.858;3.964;2022-08-19T08:46:21;26.40;51.50
18177;DHT22;9213;50.858;3.964;2022-08-19T08:48:51;26.50;51.10
18177;DHT22;9213;50.858;3.964;2022-08-19T08:51:24;26.60;50.90
18177;DHT22;9213;50.858;3.964;2022-08-19T08:53:52;26.60;50.80
18177;DHT22;9213;50.858;3.964;2022-08-19T08:56:20;26.60;50.70
18177;DHT22;9213;50.858;3.964;2022-08-19T08:58:54;26.60;50.70
18177;DHT22;9213;50.858;3.964;2022-08-19T09:01:25;26.60;50.70
18177;DHT22;9213;50.858;3.964;2022-08-19T09:03:53;26.50;50.80
18177;DHT22;9213;50.858;3.964;2022-08-19T09:06:26;26.40;50.90
18177;DHT22;9213;50.858;3.964;2022-08-19T09:09:02;26.50;51.20
18177;DHT22;9213;50.858;3.964;2022-08-19T09:11:41;26.50;51.30
18177;DHT22;9213;50.858;3.964;2022-08-19T09:14:19;26.60;51.30
18177;DHT22;9213;50.858;3.964;2022-08-19T09:16:48;26.70;51.00
18177;DHT22;9213;50.858;3.964;2022-08-19T09:19:17;26.60;50.80
18177;DHT22;9213;50.858;3.964;2022-08-19T09:21:44;26.60;50.90
18177;DHT22;9213;50.858;3.964;2022-08-19T09:24:11;26.60;51.20
18177;DHT22;9213;50.858;3.964;2022-08-19T09:26:38;26.60;51.30
18177;DHT22;9213;50.858;3.964;2022-08-19T09:29:05;26.60;51.10
18177;DHT22;9213;50.858;3.964;2022-08-19T09:31:33;26.60;51.30
18177;DHT22;9213;50.858;3.964;2022-08-19T09:34:01;26.60;51.30
18177;DHT22;9213;50.858;3.964;2022-08-19T09:36:30;26.50;51.70
18177;DHT22;9213;50.858;3.964;2022-08-19T09:38:59;26.40;52.10
18177;DHT22;9213;50.858;3.964;2022-08-19T09:41:26;26.40;52.50
18177;DHT22;9213;50.858;3.964;2022-08-19T09:43:55;26.30;52.60
18177;DHT22;9213;50.858;3.964;2022-08-19T09:46:23;26.30;52.70
18177;DHT22;9213;50.858;3.964;2022-08-19T09:48:52;26.20;53.60
18177;DHT22;9213;50.858;3.964;2022-08-19T09:51:22;26.20;53.60
18177;DHT22;9213;50.858;3.964;2022-08-19T09:53:50;26.20;53.80
18177;DHT22;9213;50.858;3.964;2022-08-19T09:56:20;26.20;53.90
18177;DHT22;9213;50.858;3.964;2022-08-19T09:58:48;26.20;53.70
18177;DHT22;9213;50.858;3.964;2022-08-19T10:01:17;26.20;53.70
18177;DHT22;9213;50.858;3.964;2022-08-19T10:03:48;26.30;53.60
18177;DHT22;9213;50.858;3.964;2022-08-19T10:06:16;26.40;53.30
18177;DHT22;9213;50.858;3.964;2022-08-19T10:08:46;26.50;52.90
18177;DHT22;9213;50.858;3.964;2022-08-19T10:11:13;26.70;53.20
18177;DHT22;9213;50.858;3.964;2022-08-19T10:13:43;26.80;52.00
18177;DHT22;9213;50.858;3.964;2022-08-19T10:16:11;27.00;52.10
18177;DHT22;9213;50.858;3.964;2022-08-19T10:18:39;27.20;51.40
18177;DHT22;9213;50.858;3.964;2022-08-19T10:21:09;27.50;50.40
18177;DHT22;9213;50.858;3.964;2022-08-19T10:23:37;27.70;49.40
18177;DHT22;9213;50.858;3.964;2022-08-19T10:26:06;27.80;48.70
18177;DHT22;9213;50.858;3.964;2022-08-19T10:28:34;27.90;48.80
18177;DHT22;9213;50.858;3.964;2022-08-19T10:31:06;27.80;48.50
18177;DHT22;9213;50.858;3.964;2022-08-19T10:33:34;27.80;48.50
18177;DHT22;9213;50.858;3.964;2022-08-19T10:36:01;27.70;48.90
18177;DHT22;9213;50.858;3.964;2022-08-19T10:38:28;27.60;49.40
18177;DHT22;9213;50.858;3.964;2022-08-19T10:40:55;27.60;49.50
18177;DHT22;9213;50.858;3.964;2022-08-19T10:43:23;27.70;49.60
18177;DHT22;9213;50.858;3.964;2022-08-19T10:45:54;27.80;49.30
18177;DHT22;9213;50.858;3.964;2022-08-19T10:48:25;27.90;49.00
18177;DHT22;9213;50.858;3.964;2022-08-19T10:50:51;28.00;49.30
18177;DHT22;9213;50.858;3.964;2022-08-19T10:53:36;28.20;48.50
18177;DHT22;9213;50.858;3.964;2022-08-19T10:56:03;28.50;47.70
18177;DHT22;9213;50.858;3.964;2022-08-19T10:58:49;28.70;46.90
18177;DHT22;9213;50.858;3.964;2022-08-19T11:01:16;29.00;46.20
18177;DHT22;9213;50.858;3.964;2022-08-19T11:03:42;29.20;46.20
18177;DHT22;9213;50.858;3.964;2022-08-19T11:06:11;29.40;45.00
18177;DHT22;9213;50.858;3.964;2022-08-19T11:08:38;29.50;44.50
18177;DHT22;9213;50.858;3.964;2022-08-19T11:11:06;29.70;44.10
18177;DHT22;9213;50.858;3.964;2022-08-19T11:13:36;29.70;43.50
18177;DHT22;9213;50.858;3.964;2022-08-19T11:16:07;29.70;43.00
18177;DHT22;9213;50.858;3.964;2022-08-19T11:18:35;29.70;43.30
18177;DHT22;9213;50.858;3.964;2022-08-19T11:21:07;29.70;43.40
18177;DHT22;9213;50.858;3.964;2022-08-19T11:23:34;29.60;43.40
18177;DHT22;9213;50.858;3.964;2022-08-19T11:26:01;29.50;43.60
18177;DHT22;9213;50.858;3.964;2022-08-19T11:28:28;29.40;44.00
18177;DHT22;9213;50.858;3.964;2022-08-19T11:30:55;29.30;44.30
18177;DHT22;9213;50.858;3.964;2022-08-19T11:33:23;29.20;45.10
18177;DHT22;9213;50.858;3.964;2022-08-19T11:35:52;29.20;44.60
18177;DHT22;9213;50.858;3.964;2022-08-19T11:38:18;29.30;44.10
18177;DHT22;9213;50.858;3.964;2022-08-19T11:40:54;29.40;44.10
18177;DHT22;9213;50.858;3.964;2022-08-19T11:43:21;29.60;43.90
18177;DHT22;9213;50.858;3.964;2022-08-19T11:45:48;29.70;43.30
18177;DHT22;9213;50.858;3.964;2022-08-19T11:48:15;29.70;42.80
18177;DHT22;9213;50.858;3.964;2022-08-19T11:50:43;29.80;42.90
18177;DHT22;9213;50.858;3.964;2022-08-19T11:53:10;29.90;42.50
18177;DHT22;9213;50.858;3.964;2022-08-19T11:55:37;29.90;42.60
18177;DHT22;9213;50.858;3.964;2022-08-19T11:58:04;30.00;43.50
18177;DHT22;9213;50.858;3.964;2022-08-19T12:00:33;30.10;42.70
18177;DHT22;9213;50.858;3.964;2022-08-19T12:03:00;30.30;41.90
18177;DHT22;9213;50.858;3.964;2022-08-19T12:05:27;30.40;41.20
18177;DHT22;9213;50.858;3.964;2022-08-19T12:07:56;30.50;41.10
18177;DHT22;9213;50.858;3.964;2022-08-19T12:10:23;30.60;40.50
18177;DHT22;9213;50.858;3.964;2022-08-19T12:12:50;30.70;41.10
18177;DHT22;9213;50.858;3.964;2022-08-19T12:15:17;30.80;40.40
18177;DHT22;9213;50.858;3.964;2022-08-19T12:17:44;31.00;40.30
18177;DHT22;9213;50.858;3.964;2022-08-19T12:20:12;31.20;39.70
18177;DHT22;9213;50.858;3.964;2022-08-19T12:22:41;31.30;39.30
18177;DHT22;9213;50.858;3.964;2022-08-19T12:25:10;31.30;39.10
18177;DHT22;9213;50.858;3.964;2022-08-19T12:27:38;31.20;39.40
18177;DHT22;9213;50.858;3.964;2022-08-19T12:30:07;31.10;39.70
18177;DHT22;9213;50.858;3.964;2022-08-19T12:32:34;31.00;39.90
18177;DHT22;9213;50.858;3.964;2022-08-19T12:35:01;31.00;40.50
18177;DHT22;9213;50.858;3.964;2022-08-19T12:37:28;31.00;40.30
18177;DHT22;9213;50.858;3.964;2022-08-19T12:39:55;31.00;40.20
18177;DHT22;9213;50.858;3.964;2022-08-19T12:42:23;30.90;39.80
18177;DHT22;9213;50.858;3.964;2022-08-19T12:44:50;30.80;39.90
18177;DHT22;9213;50.858;3.964;2022-08-19T12:47:18;30.70;40.30
18177;DHT22;9213;50.858;3.964;2022-08-19T12:49:46;30.50;40.80
18177;DHT22;9213;50.858;3.964;2022-08-19T12:52:12;30.40;40.70
18177;DHT22;9213;50.858;3.964;2022-08-19T12:54:41;30.40;41.10
18177;DHT22;9213;50.858;3.964;2022-08-19T12:57:09;30.30;41.20
18177;DHT22;9213;50.858;3.964;2022-08-19T12:59:38;30.30;41.40
18177;DHT22;9213;50.858;3.964;2022-08-19T13:02:07;30.30;41.70
18177;DHT22;9213;50.858;3.964;2022-08-19T13:04:35;30.30;42.00
18177;DHT22;9213;50.858;3.964;2022-08-19T13:07:06;30.30;42.00
18177;DHT22;9213;50.858;3.964;2022-08-19T13:09:33;30.20;42.30
18177;DHT22;9213;50.858;3.964;2022-08-19T13:12:01;30.20;42.10
18177;DHT22;9213;50.858;3.964;2022-08-19T13:14:29;30.10;42.90
18177;DHT22;9213;50.858;3.964;2022-08-19T13:16:58;30.10;43.30
18177;DHT22;9213;50.858;3.964;2022-08-19T13:19:25;30.10;43.60
18177;DHT22;9213;50.858;3.964;2022-08-19T13:21:52;30.10;43.60
18177;DHT22;9213;50.858;3.964;2022-08-19T13:24:21;30.10;44.00
18177;DHT22;9213;50.858;3.964;2022-08-19T13:26:48;30.10;44.60
18177;DHT22;9213;50.858;3.964;2022-08-19T13:29:14;30.10;44.20
18177;DHT22;9213;50.858;3.964;2022-08-19T13:32:00;30.10;45.50
18177;DHT22;9213;50.858;3.964;2022-08-19T13:34:44;30.00;45.80
18177;DHT22;9213;50.858;3.964;2022-08-19T13:37:12;29.80;46.10
18177;DHT22;9213;50.858;3.964;2022-08-19T13:39:39;29.50;47.20
18177;DHT22;9213;50.858;3.964;2022-08-19T13:42:06;29.30;47.60
18177;DHT22;9213;50.858;3.964;2022-08-19T13:44:35;29.20;48.30
18177;DHT22;9213;50.858;3.964;2022-08-19T13:47:05;29.20;48.30
18177;DHT22;9213;50.858;3.964;2022-08-19T13:49:33;29.20;46.40
18177;DHT22;9213;50.858;3.964;2022-08-19T13:52:00;29.20;47.30
18177;DHT22;9213;50.858;3.964;2022-08-19T13:54:27;29.30;48.10
18177;DHT22;9213;50.858;3.964;2022-08-19T13:56:54;29.40;47.70
18177;DHT22;9213;50.858;3.964;2022-08-19T13:59:21;29.40;48.50
18177;DHT22;9213;50.858;3.964;2022-08-19T14:01:48;29.30;48.60
18177;DHT22;9213;50.858;3.964;2022-08-19T14:04:16;29.30;48.40
18177;DHT22;9213;50.858;3.964;2022-08-19T14:06:43;29.20;48.40
18177;DHT22;9213;50.858;3.964;2022-08-19T14:09:10;29.20;48.40
18177;DHT22;9213;50.858;3.964;2022-08-19T14:11:37;29.30;48.20
18177;DHT22;9213;50.858;3.964;2022-08-19T14:14:04;29.30;48.00
18177;DHT22;9213;50.858;3.964;2022-08-19T14:16:31;29.40;47.80
18177;DHT22;9213;50.858;3.964;2022-08-19T14:18:57;29.50;47.70
18177;DHT22;9213;50.858;3.964;2022-08-19T14:21:26;29.70;47.30
18177;DHT22;9213;50.858;3.964;2022-08-19T14:23:53;29.90;46.40
18177;DHT22;9213;50.858;3.964;2022-08-19T14:26:21;30.10;45.50
18177;DHT22;9213;50.858;3.964;2022-08-19T14:28:48;30.30;44.90
18177;DHT22;9213;50.858;3.964;2022-08-19T14:31:16;30.40;44.80
18177;DHT22;9213;50.858;3.964;2022-08-19T14:33:45;30.30;44.50
18177;DHT22;9213;50.858;3.964;2022-08-19T14:36:12;30.20;44.60
18177;DHT22;9213;50.858;3.964;2022-08-19T14:38:40;30.10;44.30
18177;DHT22;9213;50.858;3.964;2022-08-19T14:41:13;30.00;44.50
18177;DHT22;9213;50.858;3.964;2022-08-19T14:43:42;29.90;44.50
18177;DHT22;9213;50.858;3.964;2022-08-19T14:46:12;29.80;45.00
18177;DHT22;9213;50.858;3.964;2022-08-19T14:48:40;29.80;44.80
18177;DHT22;9213;50.858;3.964;2022-08-19T14:51:07;29.80;45.30
18177;DHT22;9213;50.858;3.964;2022-08-19T14:53:34;29.70;46.10
18177;DHT22;9213;50.858;3.964;2022-08-19T14:56:07;29.50;47.10
18177;DHT22;9213;50.858;3.964;2022-08-19T14:58:34;29.20;48.60
18177;DHT22;9213;50.858;3.964;2022-08-19T15:01:01;28.80;50.60
18177;DHT22;9213;50.858;3.964;2022-08-19T15:03:29;28.40;51.70
18177;DHT22;9213;50.858;3.964;2022-08-19T15:05:57;28.10;53.10
18177;DHT22;9213;50.858;3.964;2022-08-19T15:08:24;27.80;53.30
18177;DHT22;9213;50.858;3.964;2022-08-19T15:10:51;27.60;54.50
18177;DHT22;9213;50.858;3.964;2022-08-19T15:13:20;27.40;55.10
18177;DHT22;9213;50.858;3.964;2022-08-19T15:15:47;27.30;56.80
18177;DHT22;9213;50.858;3.964;2022-08-19T15:18:14;27.40;57.20
18177;DHT22;9213;50.858;3.964;2022-08-19T15:20:41;27.50;56.90
18177;DHT22;9213;50.858;3.964;2022-08-19T15:23:09;27.60;57.10
18177;DHT22;9213;50.858;3.964;2022-08-19T15:25:36;27.70;56.60
18177;DHT22;9213;50.858;3.964;2022-08-19T15:28:03;27.80;55.70
18177;DHT22;9213;50.858;3.964;2022-08-19T15:30:31;27.80;55.80
18177;DHT22;9213;50.858;3.964;2022-08-19T15:32:59;27.90;55.40
18177;DHT22;9213;50.858;3.964;2022-08-19T15:35:27;27.80;55.50
18177;DHT22;9213;50.858;3.964;2022-08-19T15:37:54;27.80;55.30
18177;DHT22;9213;50.858;3.964;2022-08-19T15:40:22;27.80;55.90
18177;DHT22;9213;50.858;3.964;2022-08-19T15:42:49;27.80;56.90
18177;DHT22;9213;50.858;3.964;2022-08-19T15:45:17;27.80;57.40
18177;DHT22;9213;50.858;3.964;2022-08-19T15:47:46;27.80;56.90
18177;DHT22;9213;50.858;3.964;2022-08-19T15:50:17;27.80;57.30
18177;DHT22;9213;50.858;3.964;2022-08-19T15:52:46;27.90;56.60